Walker, Minnesota
Current Conditions -  °F | °C
As of 3:35 AM on Monday 22 Dec 2014 (Local Time) from KY49 Reporting Station
Haze Haze  
Wind Chill: 29°   Ceiling: 200
Heat Index: 33°   Visibility: 3mi
Dew Point: 33°   Wind: 5mph
Humidity: 99%   Direction: 130°SE
Pressure: 29.59"   Gusts: NA
Location:  47.1°N, 94.59°W
Report Text: KY49 220935Z AUTO 13004KT 3SM BR OVC002 01/01 A2959 RMK AO2 T00060005
Loading
Personal Weather Stations






























Interactive Weather Map New forecast layout! Learn more

10-Day Weather Forecast

Advertisements
Track Severe Weather on mobile